sensor_id;sensor_type;location;lat;lon;timestamp;temperature;humidity
14053;DHT22;7101;51.600;7.310;2022-10-26T00:01:40;9.50;99.90
14053;DHT22;7101;51.600;7.310;2022-10-26T00:04:08;9.50;99.90
14053;DHT22;7101;51.600;7.310;2022-10-26T00:06:40;9.50;99.90
14053;DHT22;7101;51.600;7.310;2022-10-26T00:09:07;9.60;99.90
14053;DHT22;7101;51.600;7.310;2022-10-26T00:11:34;9.60;99.90
14053;DHT22;7101;51.600;7.310;2022-10-26T00:14:01;9.60;99.90
14053;DHT22;7101;51.600;7.310;2022-10-26T00:16:29;9.60;99.90
14053;DHT22;7101;51.600;7.310;2022-10-26T00:18:56;9.60;99.90
14053;DHT22;7101;51.600;7.310;2022-10-26T00:21:23;9.60;99.90
14053;DHT22;7101;51.600;7.310;2022-10-26T00:23:50;9.50;99.90
14053;DHT22;7101;51.600;7.310;2022-10-26T00:26:17;9.50;99.90
14053;DHT22;7101;51.600;7.310;2022-10-26T00:28:44;9.50;99.90
14053;DHT22;7101;51.600;7.310;2022-10-26T00:31:13;9.50;99.90
14053;DHT22;7101;51.600;7.310;2022-10-26T00:33:42;9.60;99.90
14053;DHT22;7101;51.600;7.310;2022-10-26T00:36:09;9.60;99.90
14053;DHT22;7101;51.600;7.310;2022-10-26T00:38:38;9.50;99.90
14053;DHT22;7101;51.600;7.310;2022-10-26T00:41:13;9.50;99.90
14053;DHT22;7101;51.600;7.310;2022-10-26T00:43:40;9.50;99.90
14053;DHT22;7101;51.600;7.310;2022-10-26T00:46:11;9.50;99.90
14053;DHT22;7101;51.600;7.310;2022-10-26T00:48:43;9.60;99.90
14053;DHT22;7101;51.600;7.310;2022-10-26T00:51:16;9.60;99.90
14053;DHT22;7101;51.600;7.310;2022-10-26T00:53:44;9.70;99.90
14053;DHT22;7101;51.600;7.310;2022-10-26T00:56:11;9.80;99.90
14053;DHT22;7101;51.600;7.310;2022-10-26T00:58:39;9.80;99.90
14053;DHT22;7101;51.600;7.310;2022-10-26T01:01:06;9.90;99.90
14053;DHT22;7101;51.600;7.310;2022-10-26T01:03:33;9.90;99.90
14053;DHT22;7101;51.600;7.310;2022-10-26T01:06:03;9.90;99.90
14053;DHT22;7101;51.600;7.310;2022-10-26T01:08:30;9.90;99.90
14053;DHT22;7101;51.600;7.310;2022-10-26T01:10:58;9.90;99.90
14053;DHT22;7101;51.600;7.310;2022-10-26T01:13:27;9.90;99.90
14053;DHT22;7101;51.600;7.310;2022-10-26T01:16:06;9.90;99.90
14053;DHT22;7101;51.600;7.310;2022-10-26T01:18:42;9.90;99.90
14053;DHT22;7101;51.600;7.310;2022-10-26T01:21:36;10.00;99.90
14053;DHT22;7101;51.600;7.310;2022-10-26T01:24:17;10.00;99.90
14053;DHT22;7101;51.600;7.310;2022-10-26T01:26:57;10.00;99.90
14053;DHT22;7101;51.600;7.310;2022-10-26T01:29:58;10.00;99.90
14053;DHT22;7101;51.600;7.310;2022-10-26T01:32:32;10.00;99.90
14053;DHT22;7101;51.600;7.310;2022-10-26T01:35:06;10.00;99.90
14053;DHT22;7101;51.600;7.310;2022-10-26T01:37:36;10.00;99.90
14053;DHT22;7101;51.600;7.310;2022-10-26T01:40:09;9.90;99.90
14053;DHT22;7101;51.600;7.310;2022-10-26T01:42:40;10.00;99.90
14053;DHT22;7101;51.600;7.310;2022-10-26T01:45:09;10.00;99.90
14053;DHT22;7101;51.600;7.310;2022-10-26T01:47:42;10.00;99.90
14053;DHT22;7101;51.600;7.310;2022-10-26T01:50:10;10.10;99.90
14053;DHT22;7101;51.600;7.310;2022-10-26T01:52:37;10.10;99.90
14053;DHT22;7101;51.600;7.310;2022-10-26T01:57:50;10.10;99.90
14053;DHT22;7101;51.600;7.310;2022-10-26T02:00:19;10.10;99.90
14053;DHT22;7101;51.600;7.310;2022-10-26T02:03:03;10.10;99.90
14053;DHT22;7101;51.600;7.310;2022-10-26T02:05:47;10.20;99.90
14053;DHT22;7101;51.600;7.310;2022-10-26T02:08:30;10.30;99.90
14053;DHT22;7101;51.600;7.310;2022-10-26T02:11:09;10.30;99.90
14053;DHT22;7101;51.600;7.310;2022-10-26T02:13:41;10.30;99.90
14053;DHT22;7101;51.600;7.310;2022-10-26T02:16:16;10.40;99.90
14053;DHT22;7101;51.600;7.310;2022-10-26T02:18:52;10.40;99.90
14053;DHT22;7101;51.600;7.310;2022-10-26T02:21:22;10.50;99.90
14053;DHT22;7101;51.600;7.310;2022-10-26T02:23:52;10.50;99.90
14053;DHT22;7101;51.600;7.310;2022-10-26T02:26:23;10.50;99.90
14053;DHT22;7101;51.600;7.310;2022-10-26T02:28:55;10.60;99.90
14053;DHT22;7101;51.600;7.310;2022-10-26T02:31:23;10.60;99.90
14053;DHT22;7101;51.600;7.310;2022-10-26T02:33:54;10.60;99.90
14053;DHT22;7101;51.600;7.310;2022-10-26T02:36:25;10.70;99.90
14053;DHT22;7101;51.600;7.310;2022-10-26T02:38:54;10.60;99.90
14053;DHT22;7101;51.600;7.310;2022-10-26T02:41:24;10.50;99.90
14053;DHT22;7101;51.600;7.310;2022-10-26T02:43:56;10.60;99.90
14053;DHT22;7101;51.600;7.310;2022-10-26T02:46:26;10.60;99.90
14053;DHT22;7101;51.600;7.310;2022-10-26T02:48:56;10.70;99.90
14053;DHT22;7101;51.600;7.310;2022-10-26T02:51:29;10.70;99.90
14053;DHT22;7101;51.600;7.310;2022-10-26T02:54:03;10.70;99.90
14053;DHT22;7101;51.600;7.310;2022-10-26T02:56:38;10.70;99.90
14053;DHT22;7101;51.600;7.310;2022-10-26T02:59:08;10.70;99.90
14053;DHT22;7101;51.600;7.310;2022-10-26T03:01:36;10.70;99.90
14053;DHT22;7101;51.600;7.310;2022-10-26T03:04:05;10.70;99.90
14053;DHT22;7101;51.600;7.310;2022-10-26T03:06:34;10.70;99.90
14053;DHT22;7101;51.600;7.310;2022-10-26T03:09:02;10.70;99.90
14053;DHT22;7101;51.600;7.310;2022-10-26T03:11:30;10.70;99.90
14053;DHT22;7101;51.600;7.310;2022-10-26T03:13:58;10.60;99.90
14053;DHT22;7101;51.600;7.310;2022-10-26T03:16:25;10.60;99.90
14053;DHT22;7101;51.600;7.310;2022-10-26T03:18:52;10.60;99.90
14053;DHT22;7101;51.600;7.310;2022-10-26T03:21:21;10.60;99.90
14053;DHT22;7101;51.600;7.310;2022-10-26T03:23:47;10.60;99.90
14053;DHT22;7101;51.600;7.310;2022-10-26T03:26:16;10.70;99.90
14053;DHT22;7101;51.600;7.310;2022-10-26T03:28:43;10.70;99.90
14053;DHT22;7101;51.600;7.310;2022-10-26T03:31:10;10.80;99.90
14053;DHT22;7101;51.600;7.310;2022-10-26T03:33:36;10.80;99.90
14053;DHT22;7101;51.600;7.310;2022-10-26T03:36:04;10.80;99.90
14053;DHT22;7101;51.600;7.310;2022-10-26T03:38:32;10.80;99.90
14053;DHT22;7101;51.600;7.310;2022-10-26T03:40:59;10.90;99.90
14053;DHT22;7101;51.600;7.310;2022-10-26T03:43:28;10.90;99.90
14053;DHT22;7101;51.600;7.310;2022-10-26T03:45:54;10.90;99.90
14053;DHT22;7101;51.600;7.310;2022-10-26T03:48:21;10.90;99.90
14053;DHT22;7101;51.600;7.310;2022-10-26T03:50:48;10.90;99.90
14053;DHT22;7101;51.600;7.310;2022-10-26T03:53:15;10.90;99.90
14053;DHT22;7101;51.600;7.310;2022-10-26T03:55:45;10.90;99.90
14053;DHT22;7101;51.600;7.310;2022-10-26T03:58:13;10.90;99.90
14053;DHT22;7101;51.600;7.310;2022-10-26T04:00:40;11.00;99.90
14053;DHT22;7101;51.600;7.310;2022-10-26T04:03:07;11.00;99.90
14053;DHT22;7101;51.600;7.310;2022-10-26T04:05:34;11.00;99.90
14053;DHT22;7101;51.600;7.310;2022-10-26T04:08:01;11.00;99.90
14053;DHT22;7101;51.600;7.310;2022-10-26T04:10:30;11.00;99.90
14053;DHT22;7101;51.600;7.310;2022-10-26T04:12:58;11.00;99.90
14053;DHT22;7101;51.600;7.310;2022-10-26T04:15:26;11.00;99.90
14053;DHT22;7101;51.600;7.310;2022-10-26T04:17:58;11.00;99.90
14053;DHT22;7101;51.600;7.310;2022-10-26T04:20:26;11.00;99.90
14053;DHT22;7101;51.600;7.310;2022-10-26T04:22:57;10.90;99.90
14053;DHT22;7101;51.600;7.310;2022-10-26T04:25:24;10.80;99.90
14053;DHT22;7101;51.600;7.310;2022-10-26T04:27:52;10.80;99.90
14053;DHT22;7101;51.600;7.310;2022-10-26T04:30:20;10.80;99.90
14053;DHT22;7101;51.600;7.310;2022-10-26T04:32:47;10.80;99.90
14053;DHT22;7101;51.600;7.310;2022-10-26T04:35:14;10.80;99.90
14053;DHT22;7101;51.600;7.310;2022-10-26T04:37:41;10.80;99.90
14053;DHT22;7101;51.600;7.310;2022-10-26T04:40:08;10.80;99.90
14053;DHT22;7101;51.600;7.310;2022-10-26T04:42:43;10.80;99.90
14053;DHT22;7101;51.600;7.310;2022-10-26T04:45:12;10.80;99.90
14053;DHT22;7101;51.600;7.310;2022-10-26T04:47:41;10.90;99.90
14053;DHT22;7101;51.600;7.310;2022-10-26T04:50:09;11.00;99.90
14053;DHT22;7101;51.600;7.310;2022-10-26T04:52:36;11.00;99.90
14053;DHT22;7101;51.600;7.310;2022-10-26T04:55:05;11.10;99.90
14053;DHT22;7101;51.600;7.310;2022-10-26T04:57:33;11.10;99.90
14053;DHT22;7101;51.600;7.310;2022-10-26T05:00:00;11.20;99.90
14053;DHT22;7101;51.600;7.310;2022-10-26T05:02:28;11.30;99.90
14053;DHT22;7101;51.600;7.310;2022-10-26T05:04:56;11.30;99.90
14053;DHT22;7101;51.600;7.310;2022-10-26T05:07:23;11.20;99.90
14053;DHT22;7101;51.600;7.310;2022-10-26T05:09:50;11.20;99.90
14053;DHT22;7101;51.600;7.310;2022-10-26T05:12:17;11.20;99.90
14053;DHT22;7101;51.600;7.310;2022-10-26T05:14:43;11.10;99.90
14053;DHT22;7101;51.600;7.310;2022-10-26T05:17:10;11.00;99.90
14053;DHT22;7101;51.600;7.310;2022-10-26T05:19:37;10.90;99.90
14053;DHT22;7101;51.600;7.310;2022-10-26T05:22:05;10.90;99.90
14053;DHT22;7101;51.600;7.310;2022-10-26T05:24:33;10.90;99.90
14053;DHT22;7101;51.600;7.310;2022-10-26T05:27:00;10.90;99.90
14053;DHT22;7101;51.600;7.310;2022-10-26T05:29:26;10.80;99.90
14053;DHT22;7101;51.600;7.310;2022-10-26T05:31:53;10.90;99.90
14053;DHT22;7101;51.600;7.310;2022-10-26T05:34:20;10.90;99.90
14053;DHT22;7101;51.600;7.310;2022-10-26T05:36:47;10.90;99.90
14053;DHT22;7101;51.600;7.310;2022-10-26T05:39:15;10.90;99.90
14053;DHT22;7101;51.600;7.310;2022-10-26T05:41:42;10.80;99.90
14053;DHT22;7101;51.600;7.310;2022-10-26T05:44:09;10.80;99.90
14053;DHT22;7101;51.600;7.310;2022-10-26T05:46:35;10.80;99.90
14053;DHT22;7101;51.600;7.310;2022-10-26T05:49:02;10.70;99.90
14053;DHT22;7101;51.600;7.310;2022-10-26T05:51:31;10.70;99.90
14053;DHT22;7101;51.600;7.310;2022-10-26T05:53:58;10.80;99.90
14053;DHT22;7101;51.600;7.310;2022-10-26T05:56:34;10.70;99.90
14053;DHT22;7101;51.600;7.310;2022-10-26T05:59:01;10.80;99.90
14053;DHT22;7101;51.600;7.310;2022-10-26T06:01:34;10.80;99.90
14053;DHT22;7101;51.600;7.310;2022-10-26T06:04:14;10.80;99.90
14053;DHT22;7101;51.600;7.310;2022-10-26T06:06:45;10.80;99.90
14053;DHT22;7101;51.600;7.310;2022-10-26T06:09:13;10.80;99.90
14053;DHT22;7101;51.600;7.310;2022-10-26T06:11:42;10.90;99.90
14053;DHT22;7101;51.600;7.310;2022-10-26T06:14:10;10.90;99.90
14053;DHT22;7101;51.600;7.310;2022-10-26T06:16:45;10.90;99.90
14053;DHT22;7101;51.600;7.310;2022-10-26T06:19:25;10.90;99.90
14053;DHT22;7101;51.600;7.310;2022-10-26T06:22:02;11.00;99.90
14053;DHT22;7101;51.600;7.310;2022-10-26T06:24:36;11.10;99.90
14053;DHT22;7101;51.600;7.310;2022-10-26T06:27:15;11.10;99.90
14053;DHT22;7101;51.600;7.310;2022-10-26T06:29:52;11.10;99.90
14053;DHT22;7101;51.600;7.310;2022-10-26T06:32:21;11.00;99.90
14053;DHT22;7101;51.600;7.310;2022-10-26T06:34:50;11.00;99.90
14053;DHT22;7101;51.600;7.310;2022-10-26T06:37:18;11.00;99.90
14053;DHT22;7101;51.600;7.310;2022-10-26T06:39:48;11.00;99.90
14053;DHT22;7101;51.600;7.310;2022-10-26T06:42:17;11.10;99.90
14053;DHT22;7101;51.600;7.310;2022-10-26T06:44:45;11.10;99.90
14053;DHT22;7101;51.600;7.310;2022-10-26T06:47:17;11.20;99.90
14053;DHT22;7101;51.600;7.310;2022-10-26T06:49:54;11.40;99.90
14053;DHT22;7101;51.600;7.310;2022-10-26T06:52:30;11.40;99.90
14053;DHT22;7101;51.600;7.310;2022-10-26T06:54:58;11.50;99.90
14053;DHT22;7101;51.600;7.310;2022-10-26T06:57:31;11.60;99.90
14053;DHT22;7101;51.600;7.310;2022-10-26T07:00:04;11.80;99.90
14053;DHT22;7101;51.600;7.310;2022-10-26T07:02:37;11.70;99.90
14053;DHT22;7101;51.600;7.310;2022-10-26T07:05:04;11.70;99.90
14053;DHT22;7101;51.600;7.310;2022-10-26T07:07:38;11.80;99.90
14053;DHT22;7101;51.600;7.310;2022-10-26T07:10:08;11.80;99.90
14053;DHT22;7101;51.600;7.310;2022-10-26T07:12:36;11.90;99.90
14053;DHT22;7101;51.600;7.310;2022-10-26T07:15:05;12.00;99.90
14053;DHT22;7101;51.600;7.310;2022-10-26T07:17:41;11.90;99.90
14053;DHT22;7101;51.600;7.310;2022-10-26T07:20:09;12.00;99.90
14053;DHT22;7101;51.600;7.310;2022-10-26T07:22:36;12.00;99.90
14053;DHT22;7101;51.600;7.310;2022-10-26T07:25:03;12.10;99.90
14053;DHT22;7101;51.600;7.310;2022-10-26T07:27:32;12.20;99.90
14053;DHT22;7101;51.600;7.310;2022-10-26T07:30:01;12.40;99.90
14053;DHT22;7101;51.600;7.310;2022-10-26T07:32:28;12.60;99.90
14053;DHT22;7101;51.600;7.310;2022-10-26T07:34:55;13.00;99.90
14053;DHT22;7101;51.600;7.310;2022-10-26T07:37:22;13.00;99.90
14053;DHT22;7101;51.600;7.310;2022-10-26T07:39:50;13.00;99.90
14053;DHT22;7101;51.600;7.310;2022-10-26T07:42:17;13.00;99.90
14053;DHT22;7101;51.600;7.310;2022-10-26T07:44:46;13.30;99.90
14053;DHT22;7101;51.600;7.310;2022-10-26T07:47:14;13.40;99.90
14053;DHT22;7101;51.600;7.310;2022-10-26T07:49:42;13.50;99.90
14053;DHT22;7101;51.600;7.310;2022-10-26T07:52:10;13.50;99.90
14053;DHT22;7101;51.600;7.310;2022-10-26T07:54:37;13.70;99.90
14053;DHT22;7101;51.600;7.310;2022-10-26T07:57:06;13.80;99.90
14053;DHT22;7101;51.600;7.310;2022-10-26T07:59:33;13.90;99.90
14053;DHT22;7101;51.600;7.310;2022-10-26T08:02:01;14.10;99.90
14053;DHT22;7101;51.600;7.310;2022-10-26T08:04:29;14.30;99.90
14053;DHT22;7101;51.600;7.310;2022-10-26T08:06:56;14.40;99.90
14053;DHT22;7101;51.600;7.310;2022-10-26T08:09:23;14.50;99.90
14053;DHT22;7101;51.600;7.310;2022-10-26T08:11:50;14.60;99.90
14053;DHT22;7101;51.600;7.310;2022-10-26T08:14:17;14.60;99.90
14053;DHT22;7101;51.600;7.310;2022-10-26T08:16:45;14.60;99.90
14053;DHT22;7101;51.600;7.310;2022-10-26T08:19:16;14.80;99.90
14053;DHT22;7101;51.600;7.310;2022-10-26T08:21:45;14.90;99.90
14053;DHT22;7101;51.600;7.310;2022-10-26T08:24:12;15.20;99.90
14053;DHT22;7101;51.600;7.310;2022-10-26T08:26:39;15.20;99.90
14053;DHT22;7101;51.600;7.310;2022-10-26T08:29:06;15.30;99.90
14053;DHT22;7101;51.600;7.310;2022-10-26T08:31:34;15.40;99.90
14053;DHT22;7101;51.600;7.310;2022-10-26T08:34:01;15.50;99.90
14053;DHT22;7101;51.600;7.310;2022-10-26T08:36:30;15.60;99.90
14053;DHT22;7101;51.600;7.310;2022-10-26T08:38:58;15.70;99.90
14053;DHT22;7101;51.600;7.310;2022-10-26T08:41:33;16.00;99.90
14053;DHT22;7101;51.600;7.310;2022-10-26T08:44:04;16.20;99.90
14053;DHT22;7101;51.600;7.310;2022-10-26T08:46:36;16.60;99.90
14053;DHT22;7101;51.600;7.310;2022-10-26T08:49:14;16.90;99.90
14053;DHT22;7101;51.600;7.310;2022-10-26T08:51:44;17.20;99.90
14053;DHT22;7101;51.600;7.310;2022-10-26T08:54:15;17.30;99.90
14053;DHT22;7101;51.600;7.310;2022-10-26T08:56:45;17.30;99.90
14053;DHT22;7101;51.600;7.310;2022-10-26T08:59:18;17.20;99.90
14053;DHT22;7101;51.600;7.310;2022-10-26T09:01:51;17.30;99.90
14053;DHT22;7101;51.600;7.310;2022-10-26T09:04:24;17.30;99.90
14053;DHT22;7101;51.600;7.310;2022-10-26T09:06:57;17.30;99.90
14053;DHT22;7101;51.600;7.310;2022-10-26T09:09:36;17.50;99.90
14053;DHT22;7101;51.600;7.310;2022-10-26T09:12:10;17.50;99.90
14053;DHT22;7101;51.600;7.310;2022-10-26T09:14:45;17.40;99.90
14053;DHT22;7101;51.600;7.310;2022-10-26T09:17:22;17.30;99.90
14053;DHT22;7101;51.600;7.310;2022-10-26T09:20:09;17.40;99.90
14053;DHT22;7101;51.600;7.310;2022-10-26T09:22:43;17.60;99.90
14053;DHT22;7101;51.600;7.310;2022-10-26T09:25:17;17.60;99.90
14053;DHT22;7101;51.600;7.310;2022-10-26T09:27:47;17.50;99.90
14053;DHT22;7101;51.600;7.310;2022-10-26T09:30:17;17.50;99.90
14053;DHT22;7101;51.600;7.310;2022-10-26T09:32:46;17.50;99.90
14053;DHT22;7101;51.600;7.310;2022-10-26T09:35:16;17.60;99.90
14053;DHT22;7101;51.600;7.310;2022-10-26T09:37:48;17.60;99.90
14053;DHT22;7101;51.600;7.310;2022-10-26T09:40:21;17.60;99.90
14053;DHT22;7101;51.600;7.310;2022-10-26T09:42:56;17.60;99.90
14053;DHT22;7101;51.600;7.310;2022-10-26T09:45:29;17.70;99.90
14053;DHT22;7101;51.600;7.310;2022-10-26T09:48:03;17.80;99.90
14053;DHT22;7101;51.600;7.310;2022-10-26T09:50:33;18.00;99.90
14053;DHT22;7101;51.600;7.310;2022-10-26T09:53:01;18.00;99.90
14053;DHT22;7101;51.600;7.310;2022-10-26T09:55:40;18.10;1.00
14053;DHT22;7101;51.600;7.310;2022-10-26T09:58:13;18.10;1.00
14053;DHT22;7101;51.600;7.310;2022-10-26T10:00:40;18.10;1.00
14053;DHT22;7101;51.600;7.310;2022-10-26T10:03:18;18.30;1.00
14053;DHT22;7101;51.600;7.310;2022-10-26T10:05:45;18.30;1.00
14053;DHT22;7101;51.600;7.310;2022-10-26T10:08:17;18.30;1.00
14053;DHT22;7101;51.600;7.310;2022-10-26T10:10:57;18.40;1.00
14053;DHT22;7101;51.600;7.310;2022-10-26T10:13:26;18.30;1.00
14053;DHT22;7101;51.600;7.310;2022-10-26T10:15:55;18.30;1.00
14053;DHT22;7101;51.600;7.310;2022-10-26T10:18:22;18.30;1.00
14053;DHT22;7101;51.600;7.310;2022-10-26T10:20:53;18.40;1.00
14053;DHT22;7101;51.600;7.310;2022-10-26T10:23:29;18.40;1.00
14053;DHT22;7101;51.600;7.310;2022-10-26T10:26:06;18.50;1.00
14053;DHT22;7101;51.600;7.310;2022-10-26T10:28:37;18.50;1.00
14053;DHT22;7101;51.600;7.310;2022-10-26T10:31:18;18.40;1.00
14053;DHT22;7101;51.600;7.310;2022-10-26T10:33:48;18.40;1.00
14053;DHT22;7101;51.600;7.310;2022-10-26T10:36:17;18.50;1.00
14053;DHT22;7101;51.600;7.310;2022-10-26T10:38:48;18.40;1.00
14053;DHT22;7101;51.600;7.310;2022-10-26T10:41:20;18.40;1.00
14053;DHT22;7101;51.600;7.310;2022-10-26T10:43:53;18.50;1.00
14053;DHT22;7101;51.600;7.310;2022-10-26T10:46:23;18.60;1.00
14053;DHT22;7101;51.600;7.310;2022-10-26T10:49:02;18.50;1.00
14053;DHT22;7101;51.600;7.310;2022-10-26T10:51:37;18.50;1.00
14053;DHT22;7101;51.600;7.310;2022-10-26T10:54:06;18.50;1.00
14053;DHT22;7101;51.600;7.310;2022-10-26T10:56:47;18.60;1.00
14053;DHT22;7101;51.600;7.310;2022-10-26T10:59:44;18.60;1.00
14053;DHT22;7101;51.600;7.310;2022-10-26T11:02:41;18.70;1.00
14053;DHT22;7101;51.600;7.310;2022-10-26T11:05:31;18.60;1.00
14053;DHT22;7101;51.600;7.310;2022-10-26T11:08:03;18.70;1.00
14053;DHT22;7101;51.600;7.310;2022-10-26T11:10:35;18.70;1.00
14053;DHT22;7101;51.600;7.310;2022-10-26T11:13:16;18.70;1.00
14053;DHT22;7101;51.600;7.310;2022-10-26T11:15:45;18.80;1.00
14053;DHT22;7101;51.600;7.310;2022-10-26T11:18:17;18.90;1.00
14053;DHT22;7101;51.600;7.310;2022-10-26T11:20:50;18.90;1.00
14053;DHT22;7101;51.600;7.310;2022-10-26T11:23:25;18.90;1.00
14053;DHT22;7101;51.600;7.310;2022-10-26T11:26:02;18.90;1.00
14053;DHT22;7101;51.600;7.310;2022-10-26T11:28:37;18.80;1.00
14053;DHT22;7101;51.600;7.310;2022-10-26T11:31:10;18.90;1.00
14053;DHT22;7101;51.600;7.310;2022-10-26T11:33:42;18.90;1.00
14053;DHT22;7101;51.600;7.310;2022-10-26T11:36:12;19.00;1.00
14053;DHT22;7101;51.600;7.310;2022-10-26T11:38:45;19.10;1.00
14053;DHT22;7101;51.600;7.310;2022-10-26T11:41:17;19.20;1.00
14053;DHT22;7101;51.600;7.310;2022-10-26T11:43:48;19.20;1.00
14053;DHT22;7101;51.600;7.310;2022-10-26T11:46:22;19.20;1.00
14053;DHT22;7101;51.600;7.310;2022-10-26T11:48:54;19.20;1.00
14053;DHT22;7101;51.600;7.310;2022-10-26T11:51:35;19.10;1.00
14053;DHT22;7101;51.600;7.310;2022-10-26T11:54:09;19.10;1.00
14053;DHT22;7101;51.600;7.310;2022-10-26T11:56:42;19.20;1.00
14053;DHT22;7101;51.600;7.310;2022-10-26T11:59:16;19.20;1.00
14053;DHT22;7101;51.600;7.310;2022-10-26T12:02:05;19.30;1.00
14053;DHT22;7101;51.600;7.310;2022-10-26T12:04:37;19.20;1.00
14053;DHT22;7101;51.600;7.310;2022-10-26T12:07:09;19.10;1.00
14053;DHT22;7101;51.600;7.310;2022-10-26T12:09:40;19.10;1.00
14053;DHT22;7101;51.600;7.310;2022-10-26T12:12:13;19.10;1.00
14053;DHT22;7101;51.600;7.310;2022-10-26T12:14:50;19.10;1.00
14053;DHT22;7101;51.600;7.310;2022-10-26T12:17:22;19.20;1.00
14053;DHT22;7101;51.600;7.310;2022-10-26T12:19:57;19.20;1.00
14053;DHT22;7101;51.600;7.310;2022-10-26T12:22:28;19.20;1.00
14053;DHT22;7101;51.600;7.310;2022-10-26T12:25:17;19.20;1.00
14053;DHT22;7101;51.600;7.310;2022-10-26T12:27:52;19.30;1.00
14053;DHT22;7101;51.600;7.310;2022-10-26T12:30:29;19.40;1.00
14053;DHT22;7101;51.600;7.310;2022-10-26T12:32:58;19.40;1.00
14053;DHT22;7101;51.600;7.310;2022-10-26T12:35:42;19.40;1.00
14053;DHT22;7101;51.600;7.310;2022-10-26T12:41:20;19.40;1.00
14053;DHT22;7101;51.600;7.310;2022-10-26T12:43:47;19.40;1.00
14053;DHT22;7101;51.600;7.310;2022-10-26T12:46:40;19.40;1.00
14053;DHT22;7101;51.600;7.310;2022-10-26T12:58:43;19.30;1.00
14053;DHT22;7101;51.600;7.310;2022-10-26T13:01:33;19.40;1.00
14053;DHT22;7101;51.600;7.310;2022-10-26T13:04:18;19.50;1.00
14053;DHT22;7101;51.600;7.310;2022-10-26T13:07:06;19.60;1.00
14053;DHT22;7101;51.600;7.310;2022-10-26T13:09:44;19.70;1.00
14053;DHT22;7101;51.600;7.310;2022-10-26T13:12:12;19.60;1.00
14053;DHT22;7101;51.600;7.310;2022-10-26T13:14:54;19.50;1.00
14053;DHT22;7101;51.600;7.310;2022-10-26T13:17:25;19.40;1.00
14053;DHT22;7101;51.600;7.310;2022-10-26T13:19:59;19.40;1.00
14053;DHT22;7101;51.600;7.310;2022-10-26T13:22:28;19.50;1.00
14053;DHT22;7101;51.600;7.310;2022-10-26T13:24:58;19.60;1.00
14053;DHT22;7101;51.600;7.310;2022-10-26T13:27:43;19.80;1.00
14053;DHT22;7101;51.600;7.310;2022-10-26T13:33:24;20.00;1.00
14053;DHT22;7101;51.600;7.310;2022-10-26T13:35:56;20.10;1.00
14053;DHT22;7101;51.600;7.310;2022-10-26T13:38:30;20.00;1.00
14053;DHT22;7101;51.600;7.310;2022-10-26T13:41:18;20.00;1.00
14053;DHT22;7101;51.600;7.310;2022-10-26T13:43:47;20.00;1.00
14053;DHT22;7101;51.600;7.310;2022-10-26T13:46:23;19.90;1.00
14053;DHT22;7101;51.600;7.310;2022-10-26T13:48:56;19.90;1.00
14053;DHT22;7101;51.600;7.310;2022-10-26T13:51:36;19.80;1.00
14053;DHT22;7101;51.600;7.310;2022-10-26T13:54:20;19.70;1.00
14053;DHT22;7101;51.600;7.310;2022-10-26T13:57:01;19.60;1.00
14053;DHT22;7101;51.600;7.310;2022-10-26T13:59:31;19.60;1.00
14053;DHT22;7101;51.600;7.310;2022-10-26T14:02:06;19.70;1.00
14053;DHT22;7101;51.600;7.310;2022-10-26T14:04:33;19.60;1.00
14053;DHT22;7101;51.600;7.310;2022-10-26T14:07:01;19.70;1.00
14053;DHT22;7101;51.600;7.310;2022-10-26T14:09:29;19.70;1.00
14053;DHT22;7101;51.600;7.310;2022-10-26T14:11:58;19.70;1.00
14053;DHT22;7101;51.600;7.310;2022-10-26T14:14:30;19.60;1.00
14053;DHT22;7101;51.600;7.310;2022-10-26T14:16:58;19.60;1.00
14053;DHT22;7101;51.600;7.310;2022-10-26T14:19:27;19.70;1.00
14053;DHT22;7101;51.600;7.310;2022-10-26T14:21:55;19.60;1.00
14053;DHT22;7101;51.600;7.310;2022-10-26T14:24:32;19.60;1.00
14053;DHT22;7101;51.600;7.310;2022-10-26T14:27:02;19.70;1.00
14053;DHT22;7101;51.600;7.310;2022-10-26T14:29:31;19.70;1.00
14053;DHT22;7101;51.600;7.310;2022-10-26T14:31:58;19.70;1.00
14053;DHT22;7101;51.600;7.310;2022-10-26T14:34:25;19.70;1.00
14053;DHT22;7101;51.600;7.310;2022-10-26T14:36:56;19.50;1.00
14053;DHT22;7101;51.600;7.310;2022-10-26T14:39:30;19.50;1.00
14053;DHT22;7101;51.600;7.310;2022-10-26T14:42:02;19.50;1.00
14053;DHT22;7101;51.600;7.310;2022-10-26T14:44:38;19.60;1.00
14053;DHT22;7101;51.600;7.310;2022-10-26T14:47:12;19.50;1.00
14053;DHT22;7101;51.600;7.310;2022-10-26T14:49:44;19.50;1.00
14053;DHT22;7101;51.600;7.310;2022-10-26T14:52:18;19.50;1.00
14053;DHT22;7101;51.600;7.310;2022-10-26T14:54:59;19.50;1.00
14053;DHT22;7101;51.600;7.310;2022-10-26T14:57:34;19.40;1.00
14053;DHT22;7101;51.600;7.310;2022-10-26T15:00:09;19.40;1.00
14053;DHT22;7101;51.600;7.310;2022-10-26T15:02:38;19.30;1.00
14053;DHT22;7101;51.600;7.310;2022-10-26T15:05:18;19.20;1.00
14053;DHT22;7101;51.600;7.310;2022-10-26T15:07:45;19.20;1.00
14053;DHT22;7101;51.600;7.310;2022-10-26T15:10:45;19.10;1.00
14053;DHT22;7101;51.600;7.310;2022-10-26T15:13:20;19.10;1.00
14053;DHT22;7101;51.600;7.310;2022-10-26T15:15:49;19.10;1.00
14053;DHT22;7101;51.600;7.310;2022-10-26T15:18:20;19.00;1.00
14053;DHT22;7101;51.600;7.310;2022-10-26T15:20:49;18.90;1.00
14053;DHT22;7101;51.600;7.310;2022-10-26T15:23:18;18.80;1.00
14053;DHT22;7101;51.600;7.310;2022-10-26T15:25:54;18.70;1.00
14053;DHT22;7101;51.600;7.310;2022-10-26T15:28:24;18.60;1.00
14053;DHT22;7101;51.600;7.310;2022-10-26T15:31:02;18.60;1.00
14053;DHT22;7101;51.600;7.310;2022-10-26T15:33:30;18.60;1.00
14053;DHT22;7101;51.600;7.310;2022-10-26T15:36:12;18.50;1.00
14053;DHT22;7101;51.600;7.310;2022-10-26T15:38:39;18.40;1.00
14053;DHT22;7101;51.600;7.310;2022-10-26T15:41:13;18.30;1.00
14053;DHT22;7101;51.600;7.310;2022-10-26T15:43:41;18.30;1.00
14053;DHT22;7101;51.600;7.310;2022-10-26T15:46:09;18.20;1.00
14053;DHT22;7101;51.600;7.310;2022-10-26T15:48:36;18.10;1.00
14053;DHT22;7101;51.600;7.310;2022-10-26T15:51:06;18.10;1.00
14053;DHT22;7101;51.600;7.310;2022-10-26T15:53:36;18.10;1.00
14053;DHT22;7101;51.600;7.310;2022-10-26T15:56:07;18.00;1.00
14053;DHT22;7101;51.600;7.310;2022-10-26T15:58:43;17.80;1.00
14053;DHT22;7101;51.600;7.310;2022-10-26T16:01:14;17.70;1.00
14053;DHT22;7101;51.600;7.310;2022-10-26T16:03:42;17.50;1.00
14053;DHT22;7101;51.600;7.310;2022-10-26T16:06:14;17.40;1.00
14053;DHT22;7101;51.600;7.310;2022-10-26T16:08:46;17.20;1.00
14053;DHT22;7101;51.600;7.310;2022-10-26T16:11:14;17.00;1.00
14053;DHT22;7101;51.600;7.310;2022-10-26T16:13:44;16.90;1.00
14053;DHT22;7101;51.600;7.310;2022-10-26T16:16:12;16.80;1.00
14053;DHT22;7101;51.600;7.310;2022-10-26T16:18:40;16.60;1.00
14053;DHT22;7101;51.600;7.310;2022-10-26T16:21:10;16.60;1.00
14053;DHT22;7101;51.600;7.310;2022-10-26T16:23:37;16.50;1.00
14053;DHT22;7101;51.600;7.310;2022-10-26T16:26:06;16.40;1.00
14053;DHT22;7101;51.600;7.310;2022-10-26T16:28:33;16.20;1.00
14053;DHT22;7101;51.600;7.310;2022-10-26T16:31:03;16.10;1.00
14053;DHT22;7101;51.600;7.310;2022-10-26T16:33:32;16.10;1.00
14053;DHT22;7101;51.600;7.310;2022-10-26T16:36:01;16.00;6.50
14053;DHT22;7101;51.600;7.310;2022-10-26T16:38:30;15.90;12.40